sensor_id;sensor_type;location;lat;lon;timestamp;temperature;humidity
75621;DHT22;64574;48.506;-2.750;2024-02-23T00:01:06;5.90;74.70
75621;DHT22;64574;48.506;-2.750;2024-02-23T00:03:32;5.90;74.90
75621;DHT22;64574;48.506;-2.750;2024-02-23T00:06:00;5.90;74.50
75621;DHT22;64574;48.506;-2.750;2024-02-23T00:08:26;5.90;74.70
75621;DHT22;64574;48.506;-2.750;2024-02-23T00:10:51;5.90;74.60
75621;DHT22;64574;48.506;-2.750;2024-02-23T00:13:17;6.00;74.30
75621;DHT22;64574;48.506;-2.750;2024-02-23T00:15:43;6.10;73.60
75621;DHT22;64574;48.506;-2.750;2024-02-23T00:18:09;6.00;73.50
75621;DHT22;64574;48.506;-2.750;2024-02-23T00:20:35;5.90;73.70
75621;DHT22;64574;48.506;-2.750;2024-02-23T00:23:02;6.00;73.90
75621;DHT22;64574;48.506;-2.750;2024-02-23T00:25:28;6.00;73.60
75621;DHT22;64574;48.506;-2.750;2024-02-23T00:27:53;6.00;73.10
75621;DHT22;64574;48.506;-2.750;2024-02-23T00:30:19;6.10;73.10
75621;DHT22;64574;48.506;-2.750;2024-02-23T00:32:45;6.10;72.90
75621;DHT22;64574;48.506;-2.750;2024-02-23T00:35:10;6.20;72.70
75621;DHT22;64574;48.506;-2.750;2024-02-23T00:37:36;6.10;72.60
75621;DHT22;64574;48.506;-2.750;2024-02-23T00:40:03;6.10;72.50
75621;DHT22;64574;48.506;-2.750;2024-02-23T00:42:30;6.10;72.70
75621;DHT22;64574;48.506;-2.750;2024-02-23T00:44:56;6.10;72.50
75621;DHT22;64574;48.506;-2.750;2024-02-23T00:47:21;6.10;72.80
75621;DHT22;64574;48.506;-2.750;2024-02-23T00:49:47;6.10;72.70
75621;DHT22;64574;48.506;-2.750;2024-02-23T00:52:14;6.10;72.70
75621;DHT22;64574;48.506;-2.750;2024-02-23T00:54:39;6.10;72.90
75621;DHT22;64574;48.506;-2.750;2024-02-23T00:57:05;6.00;73.00
75621;DHT22;64574;48.506;-2.750;2024-02-23T00:59:31;6.10;73.00
75621;DHT22;64574;48.506;-2.750;2024-02-23T01:01:57;6.10;72.70
75621;DHT22;64574;48.506;-2.750;2024-02-23T01:04:23;6.00;73.00
75621;DHT22;64574;48.506;-2.750;2024-02-23T01:06:49;6.00;73.30
75621;DHT22;64574;48.506;-2.750;2024-02-23T01:09:14;6.00;73.30
75621;DHT22;64574;48.506;-2.750;2024-02-23T01:11:42;6.00;73.40
75621;DHT22;64574;48.506;-2.750;2024-02-23T01:14:08;5.90;73.60
75621;DHT22;64574;48.506;-2.750;2024-02-23T01:16:33;6.00;73.60
75621;DHT22;64574;48.506;-2.750;2024-02-23T01:18:59;5.90;73.70
75621;DHT22;64574;48.506;-2.750;2024-02-23T01:21:25;5.90;73.60
75621;DHT22;64574;48.506;-2.750;2024-02-23T01:23:50;5.90;73.80
75621;DHT22;64574;48.506;-2.750;2024-02-23T01:26:16;5.80;73.90
75621;DHT22;64574;48.506;-2.750;2024-02-23T01:28:42;5.90;73.90
75621;DHT22;64574;48.506;-2.750;2024-02-23T01:31:11;5.80;74.00
75621;DHT22;64574;48.506;-2.750;2024-02-23T01:33:37;5.80;73.90
75621;DHT22;64574;48.506;-2.750;2024-02-23T01:36:05;5.80;73.90
75621;DHT22;64574;48.506;-2.750;2024-02-23T01:38:30;5.70;73.90
75621;DHT22;64574;48.506;-2.750;2024-02-23T01:40:58;5.80;73.80
75621;DHT22;64574;48.506;-2.750;2024-02-23T01:43:24;5.80;74.00
75621;DHT22;64574;48.506;-2.750;2024-02-23T01:45:50;5.80;73.90
75621;DHT22;64574;48.506;-2.750;2024-02-23T01:48:16;5.80;74.00
75621;DHT22;64574;48.506;-2.750;2024-02-23T01:50:43;5.70;74.20
75621;DHT22;64574;48.506;-2.750;2024-02-23T01:53:10;5.80;74.20
75621;DHT22;64574;48.506;-2.750;2024-02-23T01:55:40;5.80;74.10
75621;DHT22;64574;48.506;-2.750;2024-02-23T01:58:06;5.70;74.20
75621;DHT22;64574;48.506;-2.750;2024-02-23T02:00:32;5.80;74.40
75621;DHT22;64574;48.506;-2.750;2024-02-23T02:02:59;5.70;74.40
75621;DHT22;64574;48.506;-2.750;2024-02-23T02:05:25;5.80;74.30
75621;DHT22;64574;48.506;-2.750;2024-02-23T02:07:53;5.80;74.40
75621;DHT22;64574;48.506;-2.750;2024-02-23T02:10:24;5.80;74.70
75621;DHT22;64574;48.506;-2.750;2024-02-23T02:12:50;5.70;75.20
75621;DHT22;64574;48.506;-2.750;2024-02-23T02:15:15;5.70;75.40
75621;DHT22;64574;48.506;-2.750;2024-02-23T02:17:41;5.80;75.20
75621;DHT22;64574;48.506;-2.750;2024-02-23T02:20:11;5.80;75.80
75621;DHT22;64574;48.506;-2.750;2024-02-23T02:22:37;5.70;76.10
75621;DHT22;64574;48.506;-2.750;2024-02-23T02:25:03;5.70;76.20
75621;DHT22;64574;48.506;-2.750;2024-02-23T02:27:29;5.70;76.50
75621;DHT22;64574;48.506;-2.750;2024-02-23T02:29:55;5.60;77.00
75621;DHT22;64574;48.506;-2.750;2024-02-23T02:32:21;5.60;77.00
75621;DHT22;64574;48.506;-2.750;2024-02-23T02:34:46;5.70;77.20
75621;DHT22;64574;48.506;-2.750;2024-02-23T02:37:13;5.70;76.80
75621;DHT22;64574;48.506;-2.750;2024-02-23T02:39:38;5.70;77.20
75621;DHT22;64574;48.506;-2.750;2024-02-23T02:42:04;5.70;76.80
75621;DHT22;64574;48.506;-2.750;2024-02-23T02:44:30;5.80;77.00
75621;DHT22;64574;48.506;-2.750;2024-02-23T02:46:58;5.70;77.10
75621;DHT22;64574;48.506;-2.750;2024-02-23T02:49:24;5.80;77.40
75621;DHT22;64574;48.506;-2.750;2024-02-23T02:51:50;5.80;77.40
75621;DHT22;64574;48.506;-2.750;2024-02-23T02:54:16;5.80;77.90
75621;DHT22;64574;48.506;-2.750;2024-02-23T02:56:43;5.70;78.70
75621;DHT22;64574;48.506;-2.750;2024-02-23T02:59:09;5.80;78.90
75621;DHT22;64574;48.506;-2.750;2024-02-23T03:01:38;5.70;79.40
75621;DHT22;64574;48.506;-2.750;2024-02-23T03:04:04;5.70;79.70
75621;DHT22;64574;48.506;-2.750;2024-02-23T03:06:30;5.60;79.80
75621;DHT22;64574;48.506;-2.750;2024-02-23T03:08:55;5.70;79.50
75621;DHT22;64574;48.506;-2.750;2024-02-23T03:11:21;5.70;78.10
75621;DHT22;64574;48.506;-2.750;2024-02-23T03:13:47;5.80;77.50
75621;DHT22;64574;48.506;-2.750;2024-02-23T03:16:21;5.80;77.00
75621;DHT22;64574;48.506;-2.750;2024-02-23T03:18:48;5.80;76.60
75621;DHT22;64574;48.506;-2.750;2024-02-23T03:21:14;5.80;76.30
75621;DHT22;64574;48.506;-2.750;2024-02-23T03:23:41;5.80;76.20
75621;DHT22;64574;48.506;-2.750;2024-02-23T03:26:07;5.90;75.70
75621;DHT22;64574;48.506;-2.750;2024-02-23T03:28:33;5.90;75.60
75621;DHT22;64574;48.506;-2.750;2024-02-23T03:31:00;5.80;76.50
75621;DHT22;64574;48.506;-2.750;2024-02-23T03:33:25;5.80;75.70
75621;DHT22;64574;48.506;-2.750;2024-02-23T03:35:52;5.80;75.50
75621;DHT22;64574;48.506;-2.750;2024-02-23T03:38:18;5.80;75.20
75621;DHT22;64574;48.506;-2.750;2024-02-23T03:40:43;5.80;75.00
75621;DHT22;64574;48.506;-2.750;2024-02-23T03:43:09;5.80;74.70
75621;DHT22;64574;48.506;-2.750;2024-02-23T03:45:35;5.80;74.70
75621;DHT22;64574;48.506;-2.750;2024-02-23T03:48:01;5.80;74.30
75621;DHT22;64574;48.506;-2.750;2024-02-23T03:50:29;5.80;74.60
75621;DHT22;64574;48.506;-2.750;2024-02-23T03:52:55;5.80;74.30
75621;DHT22;64574;48.506;-2.750;2024-02-23T03:55:22;6.00;74.10
75621;DHT22;64574;48.506;-2.750;2024-02-23T03:57:48;5.90;73.70
75621;DHT22;64574;48.506;-2.750;2024-02-23T04:00:14;5.70;74.30
75621;DHT22;64574;48.506;-2.750;2024-02-23T04:02:40;5.60;74.60
75621;DHT22;64574;48.506;-2.750;2024-02-23T04:05:06;5.50;74.80
75621;DHT22;64574;48.506;-2.750;2024-02-23T04:07:32;5.60;74.70
75621;DHT22;64574;48.506;-2.750;2024-02-23T04:09:57;5.60;74.90
75621;DHT22;64574;48.506;-2.750;2024-02-23T04:12:23;5.60;74.70
75621;DHT22;64574;48.506;-2.750;2024-02-23T04:14:49;5.50;74.80
75621;DHT22;64574;48.506;-2.750;2024-02-23T04:17:15;5.50;75.00
75621;DHT22;64574;48.506;-2.750;2024-02-23T04:19:41;5.60;74.90
75621;DHT22;64574;48.506;-2.750;2024-02-23T04:22:08;5.50;74.90
75621;DHT22;64574;48.506;-2.750;2024-02-23T04:24:37;5.50;75.20
75621;DHT22;64574;48.506;-2.750;2024-02-23T04:27:05;5.40;75.20
75621;DHT22;64574;48.506;-2.750;2024-02-23T04:29:31;5.50;75.20
75621;DHT22;64574;48.506;-2.750;2024-02-23T04:32:00;5.50;75.00
75621;DHT22;64574;48.506;-2.750;2024-02-23T04:34:27;5.50;74.60
75621;DHT22;64574;48.506;-2.750;2024-02-23T04:36:53;5.30;75.00
75621;DHT22;64574;48.506;-2.750;2024-02-23T04:39:18;5.40;75.10
75621;DHT22;64574;48.506;-2.750;2024-02-23T04:41:45;5.40;74.80
75621;DHT22;64574;48.506;-2.750;2024-02-23T04:44:10;5.30;74.70
75621;DHT22;64574;48.506;-2.750;2024-02-23T04:46:36;5.40;74.50
75621;DHT22;64574;48.506;-2.750;2024-02-23T04:49:02;5.30;74.60
75621;DHT22;64574;48.506;-2.750;2024-02-23T04:51:27;5.50;74.30
75621;DHT22;64574;48.506;-2.750;2024-02-23T04:53:53;5.50;74.10
75621;DHT22;64574;48.506;-2.750;2024-02-23T04:56:18;5.50;74.10
75621;DHT22;64574;48.506;-2.750;2024-02-23T04:58:44;5.50;74.30
75621;DHT22;64574;48.506;-2.750;2024-02-23T05:01:09;5.60;73.70
75621;DHT22;64574;48.506;-2.750;2024-02-23T05:03:36;5.50;73.90
75621;DHT22;64574;48.506;-2.750;2024-02-23T05:06:02;5.40;74.30
75621;DHT22;64574;48.506;-2.750;2024-02-23T05:08:27;5.40;74.70
75621;DHT22;64574;48.506;-2.750;2024-02-23T05:10:55;5.30;74.80
75621;DHT22;64574;48.506;-2.750;2024-02-23T05:13:21;5.30;75.20
75621;DHT22;64574;48.506;-2.750;2024-02-23T05:15:47;5.30;75.10
75621;DHT22;64574;48.506;-2.750;2024-02-23T05:18:12;5.30;75.40
75621;DHT22;64574;48.506;-2.750;2024-02-23T05:20:38;5.30;75.80
75621;DHT22;64574;48.506;-2.750;2024-02-23T05:23:03;5.30;76.30
75621;DHT22;64574;48.506;-2.750;2024-02-23T05:25:29;5.40;76.60
75621;DHT22;64574;48.506;-2.750;2024-02-23T05:27:54;5.50;76.30
75621;DHT22;64574;48.506;-2.750;2024-02-23T05:30:20;5.50;76.20
75621;DHT22;64574;48.506;-2.750;2024-02-23T05:32:45;5.40;76.60
75621;DHT22;64574;48.506;-2.750;2024-02-23T05:35:12;5.40;76.70
75621;DHT22;64574;48.506;-2.750;2024-02-23T05:37:37;5.30;76.80
75621;DHT22;64574;48.506;-2.750;2024-02-23T05:40:03;5.30;77.10
75621;DHT22;64574;48.506;-2.750;2024-02-23T05:42:32;5.30;76.80
75621;DHT22;64574;48.506;-2.750;2024-02-23T05:44:58;5.30;77.50
75621;DHT22;64574;48.506;-2.750;2024-02-23T05:47:23;5.30;77.90
75621;DHT22;64574;48.506;-2.750;2024-02-23T05:49:50;5.30;77.80
75621;DHT22;64574;48.506;-2.750;2024-02-23T05:52:15;5.30;77.40
75621;DHT22;64574;48.506;-2.750;2024-02-23T05:54:41;5.30;77.30
75621;DHT22;64574;48.506;-2.750;2024-02-23T05:57:06;5.50;77.20
75621;DHT22;64574;48.506;-2.750;2024-02-23T05:59:32;5.50;77.10
75621;DHT22;64574;48.506;-2.750;2024-02-23T06:01:57;5.50;76.80
75621;DHT22;64574;48.506;-2.750;2024-02-23T06:04:23;5.40;77.50
75621;DHT22;64574;48.506;-2.750;2024-02-23T06:06:49;5.50;77.20
75621;DHT22;64574;48.506;-2.750;2024-02-23T06:09:14;5.50;77.30
75621;DHT22;64574;48.506;-2.750;2024-02-23T06:11:41;5.50;77.20
75621;DHT22;64574;48.506;-2.750;2024-02-23T06:14:07;5.50;77.60
75621;DHT22;64574;48.506;-2.750;2024-02-23T06:16:33;5.50;77.80
75621;DHT22;64574;48.506;-2.750;2024-02-23T06:18:58;5.50;78.00
75621;DHT22;64574;48.506;-2.750;2024-02-23T06:21:24;5.50;78.30
75621;DHT22;64574;48.506;-2.750;2024-02-23T06:23:49;5.50;78.40
75621;DHT22;64574;48.506;-2.750;2024-02-23T06:26:15;5.40;78.90
75621;DHT22;64574;48.506;-2.750;2024-02-23T06:28:42;5.50;79.00
75621;DHT22;64574;48.506;-2.750;2024-02-23T06:31:08;5.50;79.00
75621;DHT22;64574;48.506;-2.750;2024-02-23T06:33:33;5.40;79.20
75621;DHT22;64574;48.506;-2.750;2024-02-23T06:35:59;5.30;79.60
75621;DHT22;64574;48.506;-2.750;2024-02-23T06:38:25;5.30;79.90
75621;DHT22;64574;48.506;-2.750;2024-02-23T06:40:51;5.40;79.80
75621;DHT22;64574;48.506;-2.750;2024-02-23T06:43:16;5.50;79.70
75621;DHT22;64574;48.506;-2.750;2024-02-23T06:45:42;5.30;80.10
75621;DHT22;64574;48.506;-2.750;2024-02-23T06:48:07;5.40;80.00
75621;DHT22;64574;48.506;-2.750;2024-02-23T06:50:33;5.40;80.10
75621;DHT22;64574;48.506;-2.750;2024-02-23T06:52:59;5.50;80.20
75621;DHT22;64574;48.506;-2.750;2024-02-23T06:55:24;5.50;79.70
75621;DHT22;64574;48.506;-2.750;2024-02-23T06:57:50;5.50;79.50
75621;DHT22;64574;48.506;-2.750;2024-02-23T07:00:15;5.50;79.70
75621;DHT22;64574;48.506;-2.750;2024-02-23T07:02:41;5.50;79.40
75621;DHT22;64574;48.506;-2.750;2024-02-23T07:05:06;5.50;79.60
75621;DHT22;64574;48.506;-2.750;2024-02-23T07:07:32;5.40;79.70
75621;DHT22;64574;48.506;-2.750;2024-02-23T07:10:01;5.50;79.90
75621;DHT22;64574;48.506;-2.750;2024-02-23T07:12:27;5.50;79.60
75621;DHT22;64574;48.506;-2.750;2024-02-23T07:14:54;5.50;79.40
75621;DHT22;64574;48.506;-2.750;2024-02-23T07:17:20;5.50;79.60
75621;DHT22;64574;48.506;-2.750;2024-02-23T07:19:46;5.50;79.70
75621;DHT22;64574;48.506;-2.750;2024-02-23T07:22:11;5.50;79.50
75621;DHT22;64574;48.506;-2.750;2024-02-23T07:24:40;5.40;79.60
75621;DHT22;64574;48.506;-2.750;2024-02-23T07:27:06;5.40;79.70
75621;DHT22;64574;48.506;-2.750;2024-02-23T07:29:31;5.50;79.50
75621;DHT22;64574;48.506;-2.750;2024-02-23T07:31:57;5.50;79.30
75621;DHT22;64574;48.506;-2.750;2024-02-23T07:34:22;5.40;79.00
75621;DHT22;64574;48.506;-2.750;2024-02-23T07:36:51;5.50;78.90
75621;DHT22;64574;48.506;-2.750;2024-02-23T07:39:16;5.60;78.40
75621;DHT22;64574;48.506;-2.750;2024-02-23T07:41:42;5.60;78.20
75621;DHT22;64574;48.506;-2.750;2024-02-23T07:44:07;5.60;78.30
75621;DHT22;64574;48.506;-2.750;2024-02-23T07:46:33;5.60;78.10
75621;DHT22;64574;48.506;-2.750;2024-02-23T07:48:58;5.60;77.70
75621;DHT22;64574;48.506;-2.750;2024-02-23T07:51:24;5.60;77.40
75621;DHT22;64574;48.506;-2.750;2024-02-23T07:53:49;5.70;77.10
75621;DHT22;64574;48.506;-2.750;2024-02-23T07:56:15;5.70;76.90
75621;DHT22;64574;48.506;-2.750;2024-02-23T07:58:40;5.70;76.80
75621;DHT22;64574;48.506;-2.750;2024-02-23T08:01:06;5.70;77.00
75621;DHT22;64574;48.506;-2.750;2024-02-23T08:03:31;5.80;76.70
75621;DHT22;64574;48.506;-2.750;2024-02-23T08:05:57;5.80;75.90
75621;DHT22;64574;48.506;-2.750;2024-02-23T08:08:22;5.80;76.40
75621;DHT22;64574;48.506;-2.750;2024-02-23T08:10:49;6.00;76.20
75621;DHT22;64574;48.506;-2.750;2024-02-23T08:13:14;6.00;75.60
75621;DHT22;64574;48.506;-2.750;2024-02-23T08:15:40;6.00;75.80
75621;DHT22;64574;48.506;-2.750;2024-02-23T08:18:06;6.00;75.70
75621;DHT22;64574;48.506;-2.750;2024-02-23T08:20:31;6.00;75.50
75621;DHT22;64574;48.506;-2.750;2024-02-23T08:22:57;6.00;75.50
75621;DHT22;64574;48.506;-2.750;2024-02-23T08:25:23;6.00;75.60
75621;DHT22;64574;48.506;-2.750;2024-02-23T08:27:48;6.00;75.50
75621;DHT22;64574;48.506;-2.750;2024-02-23T08:30:14;5.90;75.50
75621;DHT22;64574;48.506;-2.750;2024-02-23T08:32:40;6.00;75.50
75621;DHT22;64574;48.506;-2.750;2024-02-23T08:35:06;6.00;75.20
75621;DHT22;64574;48.506;-2.750;2024-02-23T08:37:32;6.00;75.00
75621;DHT22;64574;48.506;-2.750;2024-02-23T08:39:58;5.90;75.10
75621;DHT22;64574;48.506;-2.750;2024-02-23T08:42:23;6.00;74.80
75621;DHT22;64574;48.506;-2.750;2024-02-23T08:44:50;5.90;75.00
75621;DHT22;64574;48.506;-2.750;2024-02-23T08:47:15;5.90;74.80
75621;DHT22;64574;48.506;-2.750;2024-02-23T08:49:41;6.00;74.10
75621;DHT22;64574;48.506;-2.750;2024-02-23T08:52:06;6.00;74.20
75621;DHT22;64574;48.506;-2.750;2024-02-23T08:54:32;6.00;74.40
75621;DHT22;64574;48.506;-2.750;2024-02-23T08:56:58;6.00;74.20
75621;DHT22;64574;48.506;-2.750;2024-02-23T08:59:24;6.00;74.50
75621;DHT22;64574;48.506;-2.750;2024-02-23T09:01:49;6.00;74.60
75621;DHT22;64574;48.506;-2.750;2024-02-23T09:04:16;6.10;74.50
75621;DHT22;64574;48.506;-2.750;2024-02-23T09:06:41;6.20;74.20
75621;DHT22;64574;48.506;-2.750;2024-02-23T09:09:07;6.40;74.20
75621;DHT22;64574;48.506;-2.750;2024-02-23T09:11:34;6.50;73.70
75621;DHT22;64574;48.506;-2.750;2024-02-23T09:14:00;6.50;73.40
75621;DHT22;64574;48.506;-2.750;2024-02-23T09:16:25;6.50;73.40
75621;DHT22;64574;48.506;-2.750;2024-02-23T09:18:50;6.50;73.90
75621;DHT22;64574;48.506;-2.750;2024-02-23T09:21:16;6.60;73.60
75621;DHT22;64574;48.506;-2.750;2024-02-23T09:23:42;6.60;73.20
75621;DHT22;64574;48.506;-2.750;2024-02-23T09:26:10;6.60;73.10
75621;DHT22;64574;48.506;-2.750;2024-02-23T09:28:39;6.60;73.40
75621;DHT22;64574;48.506;-2.750;2024-02-23T09:31:07;6.50;73.40
75621;DHT22;64574;48.506;-2.750;2024-02-23T09:33:32;6.40;72.90
75621;DHT22;64574;48.506;-2.750;2024-02-23T09:35:58;6.40;73.00
75621;DHT22;64574;48.506;-2.750;2024-02-23T09:38:24;6.50;72.60
75621;DHT22;64574;48.506;-2.750;2024-02-23T09:40:50;6.60;72.70
75621;DHT22;64574;48.506;-2.750;2024-02-23T09:43:16;6.60;72.80
75621;DHT22;64574;48.506;-2.750;2024-02-23T09:45:41;6.70;71.60
75621;DHT22;64574;48.506;-2.750;2024-02-23T09:48:07;6.60;71.50
75621;DHT22;64574;48.506;-2.750;2024-02-23T09:50:33;6.60;71.80
75621;DHT22;64574;48.506;-2.750;2024-02-23T09:53:00;6.60;72.10
75621;DHT22;64574;48.506;-2.750;2024-02-23T09:55:26;6.50;72.10
75621;DHT22;64574;48.506;-2.750;2024-02-23T09:57:54;6.40;70.70
75621;DHT22;64574;48.506;-2.750;2024-02-23T10:00:22;6.40;70.40
75621;DHT22;64574;48.506;-2.750;2024-02-23T10:02:48;6.50;70.50
75621;DHT22;64574;48.506;-2.750;2024-02-23T10:05:14;6.60;70.30
75621;DHT22;64574;48.506;-2.750;2024-02-23T10:07:42;6.70;70.20
75621;DHT22;64574;48.506;-2.750;2024-02-23T10:10:09;6.80;70.20
75621;DHT22;64574;48.506;-2.750;2024-02-23T10:12:36;6.90;70.20
75621;DHT22;64574;48.506;-2.750;2024-02-23T10:15:02;6.90;69.70
75621;DHT22;64574;48.506;-2.750;2024-02-23T10:17:32;7.00;69.00
75621;DHT22;64574;48.506;-2.750;2024-02-23T10:19:59;6.90;68.70
75621;DHT22;64574;48.506;-2.750;2024-02-23T10:22:24;6.90;69.70
75621;DHT22;64574;48.506;-2.750;2024-02-23T10:24:50;6.90;68.90
75621;DHT22;64574;48.506;-2.750;2024-02-23T10:27:16;6.90;68.90
75621;DHT22;64574;48.506;-2.750;2024-02-23T10:29:42;6.90;69.20
75621;DHT22;64574;48.506;-2.750;2024-02-23T10:32:08;7.00;69.00
75621;DHT22;64574;48.506;-2.750;2024-02-23T10:34:35;6.90;68.70
75621;DHT22;64574;48.506;-2.750;2024-02-23T10:37:02;7.00;68.90
75621;DHT22;64574;48.506;-2.750;2024-02-23T10:39:30;7.00;68.50
75621;DHT22;64574;48.506;-2.750;2024-02-23T10:41:56;6.90;68.00
75621;DHT22;64574;48.506;-2.750;2024-02-23T10:44:24;7.00;68.20
75621;DHT22;64574;48.506;-2.750;2024-02-23T10:46:50;7.00;68.20
75621;DHT22;64574;48.506;-2.750;2024-02-23T10:49:16;7.00;68.10
75621;DHT22;64574;48.506;-2.750;2024-02-23T10:51:45;7.00;68.00
75621;DHT22;64574;48.506;-2.750;2024-02-23T10:54:12;7.00;67.80
75621;DHT22;64574;48.506;-2.750;2024-02-23T10:56:38;7.10;67.10
75621;DHT22;64574;48.506;-2.750;2024-02-23T10:59:04;7.10;66.30
75621;DHT22;64574;48.506;-2.750;2024-02-23T11:01:30;7.20;67.00
75621;DHT22;64574;48.506;-2.750;2024-02-23T11:03:57;7.40;66.20
75621;DHT22;64574;48.506;-2.750;2024-02-23T11:06:27;7.50;66.10
75621;DHT22;64574;48.506;-2.750;2024-02-23T11:08:52;7.60;66.20
75621;DHT22;64574;48.506;-2.750;2024-02-23T11:11:18;7.50;66.00
75621;DHT22;64574;48.506;-2.750;2024-02-23T11:13:44;7.40;65.80
75621;DHT22;64574;48.506;-2.750;2024-02-23T11:16:10;7.50;66.00
75621;DHT22;64574;48.506;-2.750;2024-02-23T11:18:36;7.60;66.90
75621;DHT22;64574;48.506;-2.750;2024-02-23T11:21:03;7.20;67.00
75621;DHT22;64574;48.506;-2.750;2024-02-23T11:23:42;7.20;67.20
75621;DHT22;64574;48.506;-2.750;2024-02-23T11:26:11;7.50;67.60
75621;DHT22;64574;48.506;-2.750;2024-02-23T11:28:50;7.60;66.80
75621;DHT22;64574;48.506;-2.750;2024-02-23T11:31:22;7.90;66.70
75621;DHT22;64574;48.506;-2.750;2024-02-23T11:33:53;7.90;66.40
75621;DHT22;64574;48.506;-2.750;2024-02-23T11:36:34;8.00;66.10
75621;DHT22;64574;48.506;-2.750;2024-02-23T11:39:01;8.00;65.20
75621;DHT22;64574;48.506;-2.750;2024-02-23T11:41:28;8.00;65.30
75621;DHT22;64574;48.506;-2.750;2024-02-23T11:43:55;8.00;65.90
75621;DHT22;64574;48.506;-2.750;2024-02-23T11:46:21;7.80;66.20
75621;DHT22;64574;48.506;-2.750;2024-02-23T11:48:48;7.70;67.50
75621;DHT22;64574;48.506;-2.750;2024-02-23T11:51:20;7.80;67.30
75621;DHT22;64574;48.506;-2.750;2024-02-23T11:53:50;7.80;66.80
75621;DHT22;64574;48.506;-2.750;2024-02-23T11:56:15;7.70;67.00
75621;DHT22;64574;48.506;-2.750;2024-02-23T11:58:42;7.80;66.30
75621;DHT22;64574;48.506;-2.750;2024-02-23T12:01:08;7.70;67.20
75621;DHT22;64574;48.506;-2.750;2024-02-23T12:03:34;7.60;68.50
75621;DHT22;64574;48.506;-2.750;2024-02-23T12:06:00;7.50;69.40
75621;DHT22;64574;48.506;-2.750;2024-02-23T12:08:27;7.20;70.90
75621;DHT22;64574;48.506;-2.750;2024-02-23T12:10:55;7.40;71.70
75621;DHT22;64574;48.506;-2.750;2024-02-23T12:13:21;7.20;73.00
75621;DHT22;64574;48.506;-2.750;2024-02-23T12:15:48;7.20;72.90
75621;DHT22;64574;48.506;-2.750;2024-02-23T12:18:14;7.00;73.80
75621;DHT22;64574;48.506;-2.750;2024-02-23T12:20:40;7.00;73.00
75621;DHT22;64574;48.506;-2.750;2024-02-23T12:23:06;7.20;73.20
75621;DHT22;64574;48.506;-2.750;2024-02-23T12:25:33;7.30;72.70
75621;DHT22;64574;48.506;-2.750;2024-02-23T12:27:59;7.30;72.80
75621;DHT22;64574;48.506;-2.750;2024-02-23T12:30:26;7.40;73.00
75621;DHT22;64574;48.506;-2.750;2024-02-23T12:33:09;7.40;73.30
75621;DHT22;64574;48.506;-2.750;2024-02-23T12:35:35;7.60;73.30
75621;DHT22;64574;48.506;-2.750;2024-02-23T12:38:01;7.70;73.20
75621;DHT22;64574;48.506;-2.750;2024-02-23T12:40:27;7.60;73.00
75621;DHT22;64574;48.506;-2.750;2024-02-23T12:42:53;7.80;73.40
75621;DHT22;64574;48.506;-2.750;2024-02-23T12:45:18;7.60;72.90
75621;DHT22;64574;48.506;-2.750;2024-02-23T12:47:44;7.70;73.00
75621;DHT22;64574;48.506;-2.750;2024-02-23T12:50:09;7.70;72.70
75621;DHT22;64574;48.506;-2.750;2024-02-23T12:52:36;7.80;72.00
75621;DHT22;64574;48.506;-2.750;2024-02-23T12:55:02;8.00;72.20
75621;DHT22;64574;48.506;-2.750;2024-02-23T12:57:28;8.00;71.50
75621;DHT22;64574;48.506;-2.750;2024-02-23T12:59:54;8.10;71.90
75621;DHT22;64574;48.506;-2.750;2024-02-23T13:02:20;8.20;71.10
75621;DHT22;64574;48.506;-2.750;2024-02-23T13:04:45;8.20;70.60
75621;DHT22;64574;48.506;-2.750;2024-02-23T13:07:15;8.10;71.20
75621;DHT22;64574;48.506;-2.750;2024-02-23T13:09:42;8.30;70.70
75621;DHT22;64574;48.506;-2.750;2024-02-23T13:12:08;8.30;70.40
75621;DHT22;64574;48.506;-2.750;2024-02-23T13:14:33;8.40;68.20
75621;DHT22;64574;48.506;-2.750;2024-02-23T13:16:59;8.30;67.80
75621;DHT22;64574;48.506;-2.750;2024-02-23T13:19:24;8.10;65.00
75621;DHT22;64574;48.506;-2.750;2024-02-23T13:21:50;8.20;66.00
75621;DHT22;64574;48.506;-2.750;2024-02-23T13:24:16;8.30;65.90
75621;DHT22;64574;48.506;-2.750;2024-02-23T13:26:41;8.40;65.20
75621;DHT22;64574;48.506;-2.750;2024-02-23T13:29:07;8.40;65.40
75621;DHT22;64574;48.506;-2.750;2024-02-23T13:31:33;8.30;65.00
75621;DHT22;64574;48.506;-2.750;2024-02-23T13:33:58;8.20;65.00
75621;DHT22;64574;48.506;-2.750;2024-02-23T13:36:24;8.20;64.70
75621;DHT22;64574;48.506;-2.750;2024-02-23T13:38:50;8.00;64.70
75621;DHT22;64574;48.506;-2.750;2024-02-23T13:41:16;8.00;65.20
75621;DHT22;64574;48.506;-2.750;2024-02-23T13:43:42;6.60;72.00
75621;DHT22;64574;48.506;-2.750;2024-02-23T13:46:07;5.00;81.20
75621;DHT22;64574;48.506;-2.750;2024-02-23T13:48:33;5.00;83.80
75621;DHT22;64574;48.506;-2.750;2024-02-23T13:50:59;5.10;86.30
75621;DHT22;64574;48.506;-2.750;2024-02-23T13:53:29;5.00;85.70
75621;DHT22;64574;48.506;-2.750;2024-02-23T13:55:55;4.70;86.80
75621;DHT22;64574;48.506;-2.750;2024-02-23T13:58:20;4.50;87.00
75621;DHT22;64574;48.506;-2.750;2024-02-23T14:00:46;4.40;87.10
75621;DHT22;64574;48.506;-2.750;2024-02-23T14:03:15;4.40;87.60
75621;DHT22;64574;48.506;-2.750;2024-02-23T14:05:41;4.20;88.20
75621;DHT22;64574;48.506;-2.750;2024-02-23T14:08:10;4.20;89.00
75621;DHT22;64574;48.506;-2.750;2024-02-23T14:10:35;4.40;89.90
75621;DHT22;64574;48.506;-2.750;2024-02-23T14:13:01;4.40;90.40
75621;DHT22;64574;48.506;-2.750;2024-02-23T14:15:26;4.90;90.70
75621;DHT22;64574;48.506;-2.750;2024-02-23T14:17:52;5.30;90.50
75621;DHT22;64574;48.506;-2.750;2024-02-23T14:20:18;5.30;90.10
75621;DHT22;64574;48.506;-2.750;2024-02-23T14:22:43;5.50;88.40
75621;DHT22;64574;48.506;-2.750;2024-02-23T14:25:09;5.50;86.60
75621;DHT22;64574;48.506;-2.750;2024-02-23T14:27:35;5.50;85.70
75621;DHT22;64574;48.506;-2.750;2024-02-23T14:30:00;5.60;85.40
75621;DHT22;64574;48.506;-2.750;2024-02-23T14:32:26;5.80;84.90
75621;DHT22;64574;48.506;-2.750;2024-02-23T14:34:51;5.70;83.70
75621;DHT22;64574;48.506;-2.750;2024-02-23T14:37:17;5.80;81.80
75621;DHT22;64574;48.506;-2.750;2024-02-23T14:39:43;5.60;80.00
75621;DHT22;64574;48.506;-2.750;2024-02-23T14:42:08;5.70;80.50
75621;DHT22;64574;48.506;-2.750;2024-02-23T14:44:34;5.60;80.20
75621;DHT22;64574;48.506;-2.750;2024-02-23T14:47:00;5.80;80.50
75621;DHT22;64574;48.506;-2.750;2024-02-23T14:49:25;5.80;80.10
75621;DHT22;64574;48.506;-2.750;2024-02-23T14:51:51;6.20;79.60
75621;DHT22;64574;48.506;-2.750;2024-02-23T14:54:17;6.70;79.50
75621;DHT22;64574;48.506;-2.750;2024-02-23T14:56:42;6.80;78.60
75621;DHT22;64574;48.506;-2.750;2024-02-23T14:59:08;6.50;76.30
75621;DHT22;64574;48.506;-2.750;2024-02-23T15:01:37;6.60;78.00
75621;DHT22;64574;48.506;-2.750;2024-02-23T15:04:04;6.70;75.80
75621;DHT22;64574;48.506;-2.750;2024-02-23T15:06:30;6.30;76.30
75621;DHT22;64574;48.506;-2.750;2024-02-23T15:08:55;6.00;76.70
75621;DHT22;64574;48.506;-2.750;2024-02-23T15:11:21;6.20;77.60
75621;DHT22;64574;48.506;-2.750;2024-02-23T15:13:48;6.20;76.50
75621;DHT22;64574;48.506;-2.750;2024-02-23T15:16:13;6.20;77.20
75621;DHT22;64574;48.506;-2.750;2024-02-23T15:18:39;6.20;76.20
75621;DHT22;64574;48.506;-2.750;2024-02-23T15:21:05;6.30;74.80
75621;DHT22;64574;48.506;-2.750;2024-02-23T15:23:31;6.10;76.20